Canvas, West Virginia
Current Conditions -  °F | °C
As of 5:15 PM on Monday 26 Jan 2015 (Local Time) from KLWB Reporting Station
Overcast Overcast  
Wind Chill: 24°   Ceiling: 1800
Heat Index: 32°   Visibility: 10mi
Dew Point: 27°   Wind: 9mph
Humidity: 81%   Direction: 270°W
Pressure: 29.68"   Gusts: NA
Location:  38.27°N, 80.77°W
Report Text: KLWB 262215Z AUTO 27008KT 10SM OVC018 00/M03 A2968 RMK AO2 T10011030
Loading
Personal Weather Stations






























Interactive Weather Map New forecast layout! Learn more

10-Day Weather Forecast

Advertisements
Track Severe Weather on mobile